Time;durP1;ratioP1;P1;durP2;ratioP2;P2;SDS_P1;SDS_P2;PMS_P1;PMS_P2;Temp;Humidity;BMP_temperature;BMP_pressure;BME280_temperature;BME280_humidity;BME280_pressure;Samples;Min_cycle;Max_cycle;Signal;HPM_P1;HPM_P2
2023/12/28 00:01:10;;;;;;;11.70;10.87;;;;;;;4.66;85.35;93800.44;5066466;28;20278;-72
2023/12/28 00:03:35;;;;;;;11.87;10.70;;;;;;;4.68;85.67;93801.03;5071628;28;20255;-73
2023/12/28 00:06:01;;;;;;;12.27;11.27;;;;;;;4.67;86.08;93802.00;5063437;28;20189;-72
2023/12/28 00:08:26;;;;;;;12.50;11.43;;;;;;;4.68;86.72;93803.63;5059399;28;20236;-72
2023/12/28 00:10:51;;;;;;;11.77;10.87;;;;;;;4.60;86.37;93806.47;5068862;28;20330;-71
2023/12/28 00:13:17;;;;;;;10.70;9.90;;;;;;;4.46;85.96;93784.31;5069874;28;20222;-73
2023/12/28 00:15:42;;;;;;;12.40;11.53;;;;;;;4.64;85.84;93807.63;5053665;28;20250;-73
2023/12/28 00:18:07;;;;;;;11.90;11.00;;;;;;;4.49;85.71;93798.59;5057311;28;20277;-73
2023/12/28 00:20:33;;;;;;;11.60;10.90;;;;;;;4.41;86.29;93807.44;5064013;28;20285;-72
2023/12/28 00:22:59;;;;;;;11.00;10.33;;;;;;;4.22;86.83;93808.38;5081634;28;20213;-73
2023/12/28 00:25:24;;;;;;;11.63;10.60;;;;;;;4.27;86.38;93818.06;5063236;28;20165;-71
2023/12/28 00:27:49;;;;;;;11.00;10.07;;;;;;;4.30;87.05;93815.88;5063370;28;20213;-72
2023/12/28 00:30:17;;;;;;;11.73;10.93;;;;;;;4.19;86.96;93818.31;5070543;28;20206;-73
2023/12/28 00:32:44;;;;;;;13.10;12.03;;;;;;;4.48;84.82;93802.19;5067348;28;21032;-73
2023/12/28 00:35:10;;;;;;;13.73;12.70;;;;;;;4.45;84.08;93787.88;5056894;28;20178;-72
2023/12/28 00:37:35;;;;;;;12.53;11.47;;;;;;;4.35;84.43;93807.47;5066830;28;20221;-72
2023/12/28 00:40:00;;;;;;;14.03;12.00;;;;;;;4.36;84.99;93811.63;5063966;28;20189;-72
2023/12/28 00:42:26;;;;;;;11.87;11.17;;;;;;;4.29;85.61;93808.31;5070581;28;20289;-73
2023/12/28 00:44:52;;;;;;;11.07;10.27;;;;;;;4.24;85.52;93805.56;5066492;28;20182;-73
2023/12/28 00:47:18;;;;;;;11.03;10.43;;;;;;;4.44;83.81;93825.09;5057586;28;20253;-72
2023/12/28 00:49:43;;;;;;;12.60;11.80;;;;;;;4.24;85.35;93818.50;5045789;28;20210;-73
2023/12/28 00:52:08;;;;;;;12.13;11.40;;;;;;;4.34;85.21;93832.53;5043713;28;20218;-73
2023/12/28 00:54:36;;;;;;;13.83;12.43;;;;;;;4.29;85.32;93818.66;5041861;28;20183;-73
2023/12/28 00:57:03;;;;;;;15.77;14.27;;;;;;;4.52;84.75;93836.97;5035429;28;20770;-72
2023/12/28 00:59:29;;;;;;;17.83;16.03;;;;;;;4.54;84.85;93842.72;5047916;28;20933;-72
2023/12/28 01:01:55;;;;;;;16.87;15.13;;;;;;;4.57;85.00;93840.50;5047394;28;20225;-73
2023/12/28 01:04:23;;;;;;;14.17;12.67;;;;;;;4.36;86.15;93840.88;5049637;28;20237;-72
2023/12/28 01:06:48;;;;;;;13.73;12.77;;;;;;;4.29;85.79;93841.91;5052074;28;20226;-72
2023/12/28 01:09:14;;;;;;;12.50;11.57;;;;;;;4.10;86.28;93835.91;5068751;28;20212;-72
2023/12/28 01:11:39;;;;;;;11.90;10.90;;;;;;;4.12;86.33;93833.09;5061289;28;20251;-73
2023/12/28 01:14:05;;;;;;;12.83;12.03;;;;;;;4.03;87.08;93829.97;5066995;28;20173;-72
2023/12/28 01:16:30;;;;;;;13.00;12.00;;;;;;;4.01;86.47;93834.56;5079571;28;20648;-73
2023/12/28 01:18:55;;;;;;;13.33;12.40;;;;;;;4.00;87.34;93839.94;5056130;28;20182;-73
2023/12/28 01:21:20;;;;;;;13.30;12.20;;;;;;;4.08;86.70;93827.53;5063959;28;20226;-74
2023/12/28 01:23:46;;;;;;;12.13;11.13;;;;;;;4.26;86.79;93832.81;5052963;28;20221;-72
2023/12/28 01:26:14;;;;;;;11.87;10.87;;;;;;;4.19;85.75;93836.41;5056247;28;20194;-73
2023/12/28 01:28:40;;;;;;;12.67;11.30;;;;;;;4.09;85.61;93836.09;5061333;28;20246;-73
2023/12/28 01:31:05;;;;;;;13.13;12.20;;;;;;;4.29;85.02;93845.31;5071211;28;20217;-73
2023/12/28 01:33:30;;;;;;;13.47;12.47;;;;;;;4.28;84.54;93840.34;5065977;28;20223;-72
2023/12/28 01:35:56;;;;;;;12.93;11.83;;;;;;;4.30;85.30;93839.13;5058024;28;20240;-73
2023/12/28 01:38:21;;;;;;;13.07;11.77;;;;;;;4.18;85.71;93827.88;5057942;28;20664;-72
2023/12/28 01:40:47;;;;;;;13.00;11.93;;;;;;;3.99;86.79;93828.00;5068090;28;20260;-72
2023/12/28 01:43:12;;;;;;;13.20;12.13;;;;;;;3.81;87.53;93823.56;5064318;28;20245;-73
2023/12/28 01:45:38;;;;;;;13.33;12.33;;;;;;;3.85;87.97;93822.13;5082072;28;20180;-73
2023/12/28 01:48:03;;;;;;;12.00;10.90;;;;;;;4.01;87.65;93810.50;5069719;28;20228;-72
2023/12/28 01:50:31;;;;;;;11.40;10.30;;;;;;;4.15;85.75;93817.97;5069161;28;20241;-73
2023/12/28 01:53:00;;;;;;;12.03;11.13;;;;;;;3.84;85.41;93805.06;5064899;28;20238;-72
2023/12/28 01:55:27;;;;;;;13.03;11.93;;;;;;;3.81;86.60;93820.19;5061464;28;20220;-73
2023/12/28 01:57:53;;;;;;;12.07;11.13;;;;;;;3.84;85.66;93828.31;5088707;28;20217;-73
2023/12/28 02:00:21;;;;;;;12.13;11.33;;;;;;;3.81;85.24;93823.56;5072183;28;20198;-72
2023/12/28 02:02:47;;;;;;;10.63;9.93;;;;;;;3.85;85.48;93827.31;5071923;28;20251;-73
2023/12/28 02:05:13;;;;;;;10.70;10.00;;;;;;;3.78;84.95;93811.06;5058072;28;20186;-73
2023/12/28 02:07:39;;;;;;;10.40;9.73;;;;;;;3.69;85.57;93812.28;5063087;28;20259;-73
2023/12/28 02:10:05;;;;;;;10.53;9.60;;;;;;;3.67;86.16;93809.16;5072234;28;20205;-73
2023/12/28 02:12:30;;;;;;;10.83;10.27;;;;;;;3.50;85.53;93797.72;5066136;28;20289;-73
2023/12/28 02:14:56;;;;;;;10.57;9.97;;;;;;;3.82;85.17;93825.13;5059322;28;20177;-72
2023/12/28 02:17:32;;;;;;;10.37;9.77;;;;;;;3.79;83.95;93819.59;5054257;28;20237;-73
2023/12/28 02:19:58;;;;;;;10.07;9.47;;;;;;;3.90;83.15;93824.09;5061132;28;20221;-73
2023/12/28 02:22:25;;;;;;;10.00;9.40;;;;;;;3.80;83.11;93818.59;5066731;28;20223;-73
2023/12/28 02:24:59;;;;;;;9.87;9.37;;;;;;;3.78;83.52;93816.22;5071079;28;20241;-73
2023/12/28 02:27:24;;;;;;;11.07;10.30;;;;;;;3.62;84.24;93800.41;5051065;28;20236;-73
2023/12/28 02:29:50;;;;;;;10.07;9.37;;;;;;;3.62;84.32;93790.88;5040344;28;20218;-74
2023/12/28 02:32:17;;;;;;;10.17;9.53;;;;;;;3.84;83.93;93799.91;5044429;28;20233;-73
2023/12/28 02:34:47;;;;;;;9.33;8.93;;;;;;;3.80;83.66;93793.56;5052972;28;20197;-72
2023/12/28 02:37:17;;;;;;;9.80;9.30;;;;;;;3.68;83.83;93805.56;5057588;28;20215;-73
2023/12/28 02:39:45;;;;;;;10.70;10.20;;;;;;;3.62;83.07;93801.22;5065775;28;20193;-72
2023/12/28 02:42:11;;;;;;;10.10;9.60;;;;;;;3.79;82.45;93811.84;5065137;28;20946;-72
2023/12/28 02:44:36;;;;;;;10.67;9.87;;;;;;;3.71;81.92;93820.63;5072360;28;20217;-72
2023/12/28 02:47:01;;;;;;;11.23;10.63;;;;;;;3.70;82.41;93813.88;5072000;28;20922;-73
2023/12/28 02:49:27;;;;;;;11.30;10.40;;;;;;;3.68;82.96;93805.56;5070015;28;20205;-72
2023/12/28 02:51:52;;;;;;;11.53;10.70;;;;;;;3.65;83.40;93795.63;5068229;28;20240;-72
2023/12/28 02:54:17;;;;;;;11.93;11.10;;;;;;;3.62;84.07;93814.13;5073502;28;20192;-72
2023/12/28 02:56:43;;;;;;;11.03;10.40;;;;;;;3.69;84.17;93812.28;5068902;28;20226;-73
2023/12/28 02:59:08;;;;;;;11.10;10.40;;;;;;;3.48;85.48;93799.69;5070357;28;20182;-72
2023/12/28 03:01:33;;;;;;;10.87;10.17;;;;;;;3.62;84.57;93798.63;5066391;28;20178;-72
2023/12/28 03:03:59;;;;;;;11.20;10.53;;;;;;;3.57;84.75;93798.47;5064665;28;20181;-73
2023/12/28 03:06:24;;;;;;;11.17;10.20;;;;;;;3.53;85.16;93791.34;5060015;28;20186;-73
2023/12/28 03:08:49;;;;;;;11.77;11.00;;;;;;;3.48;85.89;93773.88;5068978;28;20201;-72
2023/12/28 03:11:15;;;;;;;11.77;10.97;;;;;;;3.43;85.81;93781.44;5067168;28;20193;-73
2023/12/28 03:13:40;;;;;;;11.80;11.00;;;;;;;3.37;86.39;93776.31;5048176;28;20218;-73
2023/12/28 03:16:06;;;;;;;12.93;11.83;;;;;;;3.54;86.99;93778.22;5052153;28;20238;-72
2023/12/28 03:18:31;;;;;;;13.30;12.27;;;;;;;3.61;86.65;93773.78;5045682;28;20264;-73
2023/12/28 03:20:56;;;;;;;13.60;12.20;;;;;;;3.77;85.89;93762.97;5047517;28;20318;-73
2023/12/28 03:23:22;;;;;;;13.00;11.87;;;;;;;3.61;86.11;93762.69;5063185;28;20221;-72
2023/12/28 03:25:47;;;;;;;12.37;11.27;;;;;;;3.56;86.18;93776.22;5067890;28;20257;-72
2023/12/28 03:28:12;;;;;;;11.60;10.83;;;;;;;3.59;86.09;93780.97;5063826;28;20262;-73
2023/12/28 03:30:38;;;;;;;10.57;9.90;;;;;;;3.42;84.55;93771.34;5051739;28;20222;-72
2023/12/28 03:33:03;;;;;;;10.27;9.47;;;;;;;3.50;84.24;93782.22;5049724;28;20226;-73
2023/12/28 03:35:29;;;;;;;11.43;10.50;;;;;;;3.13;84.50;93733.94;5050014;28;20856;-73
2023/12/28 03:37:54;;;;;;;10.87;10.10;;;;;;;3.37;85.54;93778.91;5047764;28;20225;-73
2023/12/28 03:40:20;;;;;;;10.83;10.33;;;;;;;3.35;85.12;93765.44;5046837;28;20251;-73
2023/12/28 03:42:45;;;;;;;10.63;10.00;;;;;;;3.42;86.30;93792.78;5060589;28;20267;-73
2023/12/28 03:45:11;;;;;;;11.93;11.23;;;;;;;3.30;86.80;93791.81;5065463;28;20217;-72
2023/12/28 03:47:37;;;;;;;11.37;10.60;;;;;;;3.29;87.11;93811.69;5067906;28;20235;-72
2023/12/28 03:50:03;;;;;;;12.60;11.40;;;;;;;3.33;87.73;93806.94;5072031;28;20205;-73
2023/12/28 03:52:31;;;;;;;13.67;12.23;;;;;;;3.19;87.79;93797.66;5060609;28;20221;-73
2023/12/28 03:54:57;;;;;;;13.37;12.40;;;;;;;3.11;88.97;93803.03;5062546;28;20192;-73
2023/12/28 03:57:22;;;;;;;15.33;14.03;;;;;;;3.18;88.48;93811.53;5059269;28;20224;-72
2023/12/28 03:59:48;;;;;;;14.10;13.03;;;;;;;3.16;89.34;93811.75;5060059;28;20723;-73
2023/12/28 04:02:13;;;;;;;14.30;13.10;;;;;;;3.29;88.45;93800.56;5049764;28;20210;-72
2023/12/28 04:04:39;;;;;;;11.20;10.50;;;;;;;3.30;86.76;93828.75;5041636;28;20187;-72
2023/12/28 04:07:07;;;;;;;10.70;10.13;;;;;;;3.16;86.83;93810.94;5047953;28;20217;-72
2023/12/28 04:09:32;;;;;;;13.00;11.93;;;;;;;2.86;85.20;93768.59;5040268;28;20407;-72
2023/12/28 04:11:58;;;;;;;14.60;13.10;;;;;;;3.14;85.83;93808.56;5050300;28;20225;-72
2023/12/28 04:14:23;;;;;;;13.80;12.63;;;;;;;3.20;86.08;93812.94;5064608;28;20216;-73
2023/12/28 04:16:48;;;;;;;15.30;13.90;;;;;;;2.94;87.66;93799.31;5060938;28;20239;-72
2023/12/28 04:19:14;;;;;;;15.23;14.03;;;;;;;2.60;89.21;93768.66;5061963;28;20200;-72
2023/12/28 04:21:43;;;;;;;16.07;14.47;;;;;;;2.90;89.35;93816.97;5065602;28;20232;-73
2023/12/28 04:24:08;;;;;;;12.87;11.97;;;;;;;2.80;88.58;93810.66;5058899;28;20197;-73
2023/12/28 04:26:34;;;;;;;9.70;9.10;;;;;;;2.83;86.82;93810.25;5058549;28;20186;-72
2023/12/28 04:28:59;;;;;;;10.73;10.03;;;;;;;2.72;86.43;93803.16;5058110;28;20264;-72
2023/12/28 04:31:24;;;;;;;11.23;10.53;;;;;;;2.79;86.10;93819.38;5068504;28;20185;-73
2023/12/28 04:33:50;;;;;;;11.60;10.90;;;;;;;2.93;85.42;93819.16;5062676;28;20200;-72
2023/12/28 04:36:15;;;;;;;12.33;11.43;;;;;;;2.94;85.07;93796.75;5071215;28;20178;-72
2023/12/28 04:38:41;;;;;;;11.73;10.80;;;;;;;3.19;83.85;93815.72;5070152;28;20271;-73
2023/12/28 04:41:06;;;;;;;10.90;10.13;;;;;;;3.15;84.30;93819.69;5068133;28;20182;-73
2023/12/28 04:43:31;;;;;;;12.40;11.37;;;;;;;3.10;84.23;93816.91;5066126;28;20247;-73
2023/12/28 04:45:57;;;;;;;11.27;10.30;;;;;;;3.18;84.82;93819.28;5070467;28;20201;-72
2023/12/28 04:48:23;;;;;;;10.33;9.67;;;;;;;3.15;84.24;93793.88;5070479;28;20217;-73
2023/12/28 04:50:49;;;;;;;11.70;11.03;;;;;;;3.25;84.44;93809.72;5068366;28;20185;-73
2023/12/28 04:53:15;;;;;;;10.40;9.70;;;;;;;3.30;84.15;93815.84;5066037;28;20236;-73
2023/12/28 04:55:40;;;;;;;10.33;9.80;;;;;;;3.31;84.07;93814.06;5061839;28;20181;-72
2023/12/28 04:58:06;;;;;;;11.97;11.17;;;;;;;3.04;84.84;93802.25;5055629;28;20226;-72
2023/12/28 05:00:31;;;;;;;10.57;9.87;;;;;;;3.19;84.46;93815.72;5067635;28;20205;-73
2023/12/28 05:02:56;;;;;;;10.47;9.97;;;;;;;3.24;84.37;93813.28;5063979;28;20232;-72
2023/12/28 05:05:22;;;;;;;10.93;10.10;;;;;;;3.07;85.01;93799.25;5062706;28;20210;-73
2023/12/28 05:07:47;;;;;;;10.87;10.17;;;;;;;2.98;84.76;93809.03;5053907;28;20233;-72
2023/12/28 05:10:12;;;;;;;9.87;9.27;;;;;;;2.89;84.87;93799.13;5063415;28;20317;-73
2023/12/28 05:12:38;;;;;;;9.93;9.43;;;;;;;2.88;85.96;93813.03;5058020;28;20281;-73
2023/12/28 05:15:04;;;;;;;11.17;10.20;;;;;;;2.89;85.26;93810.25;5067974;28;20177;-73
2023/12/28 05:17:29;;;;;;;9.90;9.43;;;;;;;2.95;85.29;93816.38;5069138;28;20225;-72
2023/12/28 05:19:56;;;;;;;11.23;10.53;;;;;;;3.06;84.95;93816.56;5062645;28;20221;-71
2023/12/28 05:22:21;;;;;;;9.53;9.03;;;;;;;3.17;83.89;93817.69;5061010;28;20241;-72
2023/12/28 05:24:46;;;;;;;10.60;10.10;;;;;;;3.24;83.67;93815.88;5064599;28;20189;-72
2023/12/28 05:27:12;;;;;;;10.27;9.67;;;;;;;3.09;84.21;93803.25;5059909;28;20225;-72
2023/12/28 05:29:37;;;;;;;10.17;9.53;;;;;;;2.71;84.84;93760.28;5065010;28;20217;-72
2023/12/28 05:32:03;;;;;;;14.83;13.63;;;;;;;3.10;84.75;93822.88;5059076;28;20444;-73
2023/12/28 05:34:28;;;;;;;13.97;12.00;;;;;;;3.17;83.53;93815.13;5069500;28;20204;-73
2023/12/28 05:36:53;;;;;;;14.47;13.17;;;;;;;3.20;84.42;93801.81;5067631;28;20245;-73
2023/12/28 05:39:19;;;;;;;15.70;12.00;;;;;;;3.20;84.02;93814.72;5052685;28;20198;-73
2023/12/28 05:41:47;;;;;;;12.50;11.70;;;;;;;2.81;85.14;93755.50;5052050;28;20229;-73
2023/12/28 05:44:12;;;;;;;11.87;11.13;;;;;;;3.28;84.98;93827.38;5043843;28;20242;-73
2023/12/28 05:46:38;;;;;;;10.83;10.13;;;;;;;3.38;84.45;93832.13;5047973;28;20198;-73
2023/12/28 05:49:03;;;;;;;11.73;10.83;;;;;;;3.18;85.05;93825.22;5054497;28;20216;-72
2023/12/28 05:51:28;;;;;;;12.27;11.33;;;;;;;3.09;85.73;93830.81;5055269;28;20195;-72
2023/12/28 05:53:54;;;;;;;12.63;11.73;;;;;;;3.15;85.15;93830.81;5055849;28;20209;-73
2023/12/28 05:56:19;;;;;;;12.87;11.77;;;;;;;3.24;85.15;93833.94;5052941;28;20220;-71
2023/12/28 05:58:44;;;;;;;12.90;11.70;;;;;;;3.32;84.89;93838.88;5075473;28;20225;-71
2023/12/28 06:01:10;;;;;;;12.83;11.63;;;;;;;3.22;84.40;93828.97;5066587;28;20244;-73
2023/12/28 06:03:36;;;;;;;13.93;12.53;;;;;;;3.06;83.88;93801.06;5067193;28;20216;-72
2023/12/28 06:06:01;;;;;;;12.33;11.23;;;;;;;3.14;84.57;93839.50;5066535;28;20190;-72
2023/12/28 06:08:26;;;;;;;11.97;10.20;;;;;;;2.98;85.38;93823.72;5060260;28;20228;-73
2023/12/28 06:10:52;;;;;;;11.80;11.00;;;;;;;3.12;85.44;93840.72;5077444;28;20185;-73
2023/12/28 06:13:17;;;;;;;11.57;10.97;;;;;;;2.88;86.41;93818.19;5050283;28;20246;-73
2023/12/28 06:15:43;;;;;;;10.20;9.50;;;;;;;3.01;85.99;93831.03;5052122;28;20190;-74
2023/12/28 06:18:08;;;;;;;10.50;9.80;;;;;;;2.89;86.61;93805.09;5094023;28;20525;-73
2023/12/28 06:20:34;;;;;;;11.37;10.50;;;;;;;2.86;86.71;93800.31;5065775;28;20233;-73
2023/12/28 06:22:59;;;;;;;11.63;10.83;;;;;;;3.23;85.88;93819.47;5069491;28;20714;-73
2023/12/28 06:25:24;;;;;;;11.53;10.93;;;;;;;3.16;85.10;93841.91;5070219;28;20193;-73
2023/12/28 06:27:50;;;;;;;10.73;10.20;;;;;;;3.06;85.24;93826.88;5067705;28;20213;-73
2023/12/28 06:30:15;;;;;;;11.00;10.37;;;;;;;3.35;84.57;93845.44;5067225;28;20196;-73
2023/12/28 06:32:41;;;;;;;11.27;10.67;;;;;;;3.25;85.12;93825.22;5060030;28;20290;-73
2023/12/28 06:35:06;;;;;;;10.17;9.67;;;;;;;3.16;85.88;93826.41;5048003;28;20178;-73
2023/12/28 06:37:32;;;;;;;10.77;10.07;;;;;;;3.11;86.78;93834.00;5054238;28;20226;-73
2023/12/28 06:39:57;;;;;;;11.23;10.53;;;;;;;3.23;86.74;93847.84;5047011;28;20209;-73
2023/12/28 06:42:22;;;;;;;11.93;11.10;;;;;;;3.20;86.70;93846.47;5052272;28;20226;-73
2023/12/28 06:44:47;;;;;;;11.70;10.90;;;;;;;3.14;86.46;93838.75;5055107;28;20201;-72
2023/12/28 06:47:13;;;;;;;12.13;11.30;;;;;;;3.37;85.29;93849.38;5058393;28;20243;-73
2023/12/28 06:49:38;;;;;;;10.80;10.20;;;;;;;3.47;85.80;93859.28;5062426;28;20304;-73
2023/12/28 06:52:04;;;;;;;11.17;10.47;;;;;;;3.51;84.86;93853.50;5059478;28;20490;-73
2023/12/28 06:54:29;;;;;;;9.53;8.97;;;;;;;3.56;85.34;93861.44;5052269;28;20197;-73
2023/12/28 06:56:54;;;;;;;10.97;10.23;;;;;;;3.57;84.93;93860.41;5051467;28;20289;-73
2023/12/28 06:59:20;;;;;;;13.03;11.87;;;;;;;3.54;85.59;93850.50;5051939;28;20286;-71
2023/12/28 07:01:45;;;;;;;13.03;12.03;;;;;;;3.64;86.47;93850.88;5053004;28;20217;-73
2023/12/28 07:04:11;;;;;;;15.27;13.97;;;;;;;3.81;86.45;93840.84;5070664;28;20196;-73
2023/12/28 07:06:36;;;;;;;17.67;16.00;;;;;;;3.89;86.48;93854.28;5083329;28;20185;-73
2023/12/28 07:09:02;;;;;;;16.60;15.03;;;;;;;4.01;86.55;93852.66;5073266;28;20228;-73
2023/12/28 07:11:27;;;;;;;16.07;14.50;;;;;;;3.93;87.21;93858.06;5068176;28;20174;-73
2023/12/28 07:13:53;;;;;;;21.80;18.20;;;;;;;4.20;86.90;93851.72;5077260;28;20199;-73
2023/12/28 07:16:18;;;;;;;18.87;16.87;;;;;;;4.25;86.46;93845.94;5076081;28;20189;-73
2023/12/28 07:18:43;;;;;;;18.93;17.13;;;;;;;4.26;86.24;93853.47;5069248;28;20235;-74
2023/12/28 07:21:09;;;;;;;18.73;16.73;;;;;;;4.34;86.89;93852.44;5065713;28;20251;-73
2023/12/28 07:23:35;;;;;;;19.33;17.50;;;;;;;4.28;86.88;93861.78;5070769;28;20229;-73
2023/12/28 07:26:00;;;;;;;26.47;19.43;;;;;;;4.49;86.79;93845.16;5066634;28;20245;-73
2023/12/28 07:28:26;;;;;;;21.77;19.60;;;;;;;4.51;86.62;93843.16;5082192;28;20314;-73
2023/12/28 07:30:51;;;;;;;23.40;19.13;;;;;;;4.40;87.45;93844.63;5068242;28;20704;-73
2023/12/28 07:33:16;;;;;;;22.07;18.33;;;;;;;4.45;86.80;93839.59;5070610;28;20239;-75
2023/12/28 07:35:42;;;;;;;21.57;19.27;;;;;;;4.87;85.54;93836.25;5069639;28;20253;-76
2023/12/28 07:38:07;;;;;;;27.93;21.53;;;;;;;4.81;85.77;93859.59;5044247;28;20241;-75
2023/12/28 07:40:32;;;;;;;22.50;20.17;;;;;;;4.72;86.21;93859.06;5049367;28;20194;-75
2023/12/28 07:42:58;;;;;;;27.00;21.37;;;;;;;4.63;85.96;93846.63;5050288;28;20241;-75
2023/12/28 07:45:24;;;;;;;23.50;19.87;;;;;;;4.76;86.47;93867.97;5042446;28;20190;-74
2023/12/28 07:47:52;;;;;;;24.07;21.17;;;;;;;4.82;84.95;93810.22;5048300;28;20217;-75
2023/12/28 07:50:18;;;;;;;26.43;21.37;;;;;;;5.31;84.07;93861.09;5050462;28;20205;-76
2023/12/28 07:52:45;;;;;;;26.33;20.33;;;;;;;5.10;85.17;93868.47;5057744;28;20248;-75
2023/12/28 07:55:11;;;;;;;22.57;19.27;;;;;;;5.16;84.87;93863.25;5070637;28;20182;-74
2023/12/28 07:57:36;;;;;;;23.63;20.50;;;;;;;5.23;84.71;93868.34;5068642;28;20232;-75
2023/12/28 08:00:03;;;;;;;27.10;21.97;;;;;;;5.04;84.90;93841.69;5070588;28;20201;-78
2023/12/28 08:02:28;;;;;;;26.03;20.93;;;;;;;5.28;84.12;93861.53;5064376;28;20224;-76
2023/12/28 08:04:54;;;;;;;22.90;20.30;;;;;;;5.34;83.51;93872.81;5071149;28;20196;-81
2023/12/28 08:07:20;;;;;;;23.50;19.40;;;;;;;5.35;83.00;93874.41;5062855;28;20256;-75
2023/12/28 08:09:45;;;;;;;24.20;21.63;;;;;;;5.35;83.37;93871.81;5061311;28;20221;-72
2023/12/28 08:12:10;;;;;;;22.47;20.07;;;;;;;5.30;84.32;93875.03;5060859;28;20236;-76
2023/12/28 08:14:36;;;;;;;27.13;22.17;;;;;;;5.41;84.32;93876.13;5068744;28;20220;-77
2023/12/28 08:17:01;;;;;;;27.57;19.27;;;;;;;5.53;83.86;93853.66;5068162;28;20229;-75
2023/12/28 08:19:27;;;;;;;25.67;20.47;;;;;;;5.63;83.42;93857.34;5068276;28;20189;-75
2023/12/28 08:21:52;;;;;;;23.10;20.33;;;;;;;5.79;82.29;93843.00;5068711;28;20774;-78
2023/12/28 08:24:17;;;;;;;22.90;20.03;;;;;;;5.73;81.81;93823.94;5065565;28;20181;-78
2023/12/28 08:26:43;;;;;;;23.20;19.67;;;;;;;5.57;81.34;93777.13;5065730;28;20229;-77
2023/12/28 08:29:08;;;;;;;28.87;22.57;;;;;;;5.98;80.75;93839.38;5060443;28;20233;-78
2023/12/28 08:31:33;;;;;;;25.13;20.63;;;;;;;6.30;80.24;93856.28;5067312;28;20253;-82
2023/12/28 08:33:59;;;;;;;31.27;20.93;;;;;;;6.33;80.15;93866.22;5048700;28;20266;-80
2023/12/28 08:36:24;;;;;;;26.60;20.47;;;;;;;6.53;79.53;93866.72;5052263;28;20186;-82
2023/12/28 08:38:49;;;;;;;25.03;22.43;;;;;;;6.47;79.98;93870.19;5048208;28;20190;-78
2023/12/28 08:41:23;;;;;;;25.90;23.10;;;;;;;6.35;81.33;93866.78;5041674;28;20906;-79
2023/12/28 08:43:50;;;;;;;33.47;24.63;;;;;;;6.67;80.42;93868.09;5048639;28;20209;-79
2023/12/28 08:46:15;;;;;;;33.90;24.10;;;;;;;6.42;81.46;93865.69;5040001;28;20178;-77
2023/12/28 08:48:41;;;;;;;42.93;26.60;;;;;;;6.73;80.54;93861.19;5054077;28;20253;-76
2023/12/28 08:51:06;;;;;;;31.33;24.63;;;;;;;6.83;80.25;93851.06;5067876;28;20209;-79
2023/12/28 08:53:32;;;;;;;30.70;25.47;;;;;;;6.88;80.35;93844.16;5041328;28;20225;-81
2023/12/28 08:55:57;;;;;;;33.53;25.20;;;;;;;6.81;81.10;93838.31;5042070;28;20175;-82
2023/12/28 08:58:22;;;;;;;31.37;24.67;;;;;;;6.61;82.21;93837.84;5040031;28;20222;-82
2023/12/28 09:00:48;;;;;;;33.43;24.30;;;;;;;6.30;83.63;93819.97;5044307;28;20230;-75
2023/12/28 09:03:14;;;;;;;32.93;24.83;;;;;;;6.64;82.93;93826.22;5046344;28;20282;-79
2023/12/28 09:05:39;;;;;;;31.33;24.37;;;;;;;7.05;81.06;93839.88;5049638;28;20190;-76
2023/12/28 09:08:05;;;;;;;34.93;24.87;;;;;;;7.10;80.50;93837.41;5049582;28;20283;-73
2023/12/28 09:10:31;;;;;;;32.20;25.17;;;;;;;7.09;80.54;93825.44;5036715;28;20707;-79
2023/12/28 09:12:56;;;;;;;29.90;25.77;;;;;;;7.19;80.41;93838.63;5050366;28;20222;-77
2023/12/28 09:15:21;;;;;;;43.37;24.03;;;;;;;7.41;85.28;93833.66;5080832;28;20185;-77
2023/12/28 09:17:47;;;;;;;29.40;24.03;;;;;;;7.50;80.30;93833.03;5043425;28;20234;-76
2023/12/28 09:20:13;;;;;;;35.63;24.23;;;;;;;7.19;82.22;93819.69;5037970;28;20210;-74
2023/12/28 09:22:38;;;;;;;33.77;24.90;;;;;;;7.26;81.79;93821.13;5042779;28;20289;-75
2023/12/28 09:25:04;;;;;;;31.77;23.77;;;;;;;7.58;80.29;93824.13;5047167;28;20193;-73
2023/12/28 09:27:30;;;;;;;32.23;24.10;;;;;;;7.35;83.01;93793.78;5042345;28;20218;-73
2023/12/28 09:29:55;;;;;;;28.40;22.80;;;;;;;7.80;79.58;93807.66;5043309;28;20287;-72
2023/12/28 09:32:20;;;;;;;37.50;23.77;;;;;;;7.77;80.13;93810.72;5048543;28;20356;-73
2023/12/28 09:34:46;;;;;;;27.63;21.97;;;;;;;7.72;79.11;93784.63;5043681;28;20183;-77
2023/12/28 09:37:11;;;;;;;31.70;24.60;;;;;;;8.15;81.33;93784.88;5037212;28;20249;-76
2023/12/28 09:39:37;;;;;;;28.57;23.67;;;;;;;8.27;78.15;93802.25;5045502;28;20194;-72
2023/12/28 09:42:13;;;;;;;33.63;24.13;;;;;;;8.24;77.35;93803.53;5043053;28;20344;-72
2023/12/28 09:44:40;;;;;;;31.00;23.73;;;;;;;7.81;78.33;93800.66;5037166;28;20184;-72
2023/12/28 09:47:06;;;;;;;30.97;23.03;;;;;;;8.06;77.68;93788.88;5046634;28;20228;-72
2023/12/28 09:49:33;;;;;;;29.30;23.17;;;;;;;8.24;76.73;93794.91;5055285;28;20208;-72
2023/12/28 09:51:58;;;;;;;33.17;25.20;;;;;;;8.22;76.40;93782.13;5054632;28;20271;-72
2023/12/28 09:54:23;;;;;;;32.47;23.87;;;;;;;8.17;76.72;93784.66;5054246;28;20216;-72
2023/12/28 09:56:49;;;;;;;36.27;24.33;;;;;;;8.30;75.80;93780.97;5064728;28;20233;-72
2023/12/28 09:59:16;;;;;;;38.27;25.07;;;;;;;7.82;79.05;93782.22;5062291;28;20181;-72
2023/12/28 10:01:42;;;;;;;27.73;22.93;;;;;;;8.02;77.67;93773.97;5054561;28;20216;-72
2023/12/28 10:04:08;;;;;;;31.30;22.83;;;;;;;8.45;75.92;93768.22;5066542;28;20209;-72
2023/12/28 10:06:34;;;;;;;26.63;22.57;;;;;;;8.43;75.42;93765.06;5060429;28;20269;-72
2023/12/28 10:09:00;;;;;;;28.90;21.70;;;;;;;8.20;76.67;93756.34;5067287;28;20212;-73
2023/12/28 10:11:26;;;;;;;25.90;21.47;;;;;;;8.58;75.25;93747.06;5053852;28;20178;-73
2023/12/28 10:13:53;;;;;;;22.97;20.43;;;;;;;8.52;75.12;93741.00;5054978;28;20192;-73
2023/12/28 10:16:19;;;;;;;27.43;18.30;;;;;;;8.57;74.68;93748.91;5055760;28;20217;-73
2023/12/28 10:18:45;;;;;;;21.83;18.70;;;;;;;8.83;73.02;93747.44;5066273;28;20886;-71
2023/12/28 10:21:11;;;;;;;20.50;17.77;;;;;;;8.71;73.91;93751.94;5062008;28;20232;-72
2023/12/28 10:23:37;;;;;;;25.27;20.60;;;;;;;8.71;73.90;93752.75;5043340;28;20222;-72
2023/12/28 10:26:05;;;;;;;25.57;20.17;;;;;;;8.62;74.83;93740.38;5044857;28;20203;-73
2023/12/28 10:28:38;;;;;;;24.50;19.90;;;;;;;8.83;73.71;93737.00;5048901;28;20274;-72
2023/12/28 10:31:04;;;;;;;27.03;20.93;;;;;;;8.79;73.73;93734.13;5048481;28;20222;-72
2023/12/28 10:33:39;;;;;;;27.10;20.20;;;;;;;8.88;73.60;93722.25;5041825;28;20226;-72
2023/12/28 10:36:08;;;;;;;23.47;20.07;;;;;;;9.05;73.12;93711.78;5050019;28;20217;-72
2023/12/28 10:38:37;;;;;;;24.40;20.87;;;;;;;9.02;73.13;93701.84;5070600;28;20222;-72
2023/12/28 10:41:07;;;;;;;23.57;20.53;;;;;;;9.15;73.01;93697.06;5067844;28;20177;-72
2023/12/28 10:43:46;;;;;;;25.90;21.10;;;;;;;9.10;72.88;93698.81;5071485;28;20225;-72
2023/12/28 10:46:25;;;;;;;27.90;21.87;;;;;;;9.23;72.50;93690.66;5084201;28;20232;-72
2023/12/28 10:48:57;;;;;;;26.10;21.87;;;;;;;9.37;72.35;93681.44;5070140;28;20213;-71
2023/12/28 10:51:27;;;;;;;32.87;23.03;;;;;;;9.27;72.11;93674.28;5064241;28;20186;-73
2023/12/28 10:54:04;;;;;;;42.53;23.37;;;;;;;9.33;72.64;93683.72;5059697;28;20178;-72
2023/12/28 10:56:40;;;;;;;30.83;22.57;;;;;;;9.29;72.91;93679.25;5069117;28;20181;-72
2023/12/28 10:59:24;;;;;;;30.50;23.40;;;;;;;9.30;72.48;93662.59;5069284;28;20253;-73
2023/12/28 11:01:54;;;;;;;25.87;22.03;;;;;;;9.26;72.62;93677.91;5061869;28;20241;-72
2023/12/28 11:04:28;;;;;;;33.30;23.67;;;;;;;9.10;73.99;93673.56;5039748;28;20179;-73
2023/12/28 11:06:56;;;;;;;30.63;22.87;;;;;;;9.39;73.14;93669.72;5039221;28;20251;-72
2023/12/28 11:09:22;;;;;;;31.23;22.73;;;;;;;9.63;71.98;93670.22;5049746;28;20232;-73
2023/12/28 11:11:50;;;;;;;40.50;23.10;;;;;;;9.74;71.03;93664.06;5047873;28;20232;-73
2023/12/28 11:14:17;;;;;;;35.67;23.70;;;;;;;9.68;71.21;93649.41;5041144;28;20193;-72
2023/12/28 11:16:43;;;;;;;33.23;22.43;;;;;;;9.74;70.65;93648.44;5047902;28;20249;-72
2023/12/28 11:19:09;;;;;;;33.93;23.67;;;;;;;9.64;70.90;93635.28;5040520;28;20201;-73
2023/12/28 11:21:35;;;;;;;29.33;22.27;;;;;;;9.93;70.49;93641.78;5041174;28;20233;-72